createdAt,value
2022-08-01T00:01:15.225Z,19.71
2022-08-01T00:03:43.427Z,19.71
2022-08-01T00:06:11.667Z,19.66
2022-08-01T00:08:42.568Z,19.70
2022-08-01T00:11:11.536Z,19.84
2022-08-01T00:13:39.730Z,19.79
2022-08-01T00:16:08.292Z,19.55
2022-08-01T00:18:36.799Z,19.59
2022-08-01T00:21:05.208Z,19.53
2022-08-01T00:23:33.452Z,19.78
2022-08-01T00:26:03.330Z,19.72
2022-08-01T00:28:31.541Z,19.72
2022-08-01T00:30:59.742Z,19.57
2022-08-01T00:33:28.197Z,19.58
2022-08-01T00:35:56.968Z,19.63
2022-08-01T00:38:25.179Z,19.50
2022-08-01T00:40:55.057Z,19.66
2022-08-01T00:43:24.629Z,19.60
2022-08-01T00:45:52.846Z,19.61
2022-08-01T00:48:21.029Z,19.61
2022-08-01T00:50:49.234Z,19.59
2022-08-01T00:53:18.862Z,19.57
2022-08-01T00:55:47.397Z,19.70
2022-08-01T00:58:15.571Z,19.45
2022-08-01T01:00:53.147Z,19.46
2022-08-01T01:13:54.718Z,19.60
2022-08-01T01:16:23.914Z,19.52
2022-08-01T01:18:53.830Z,19.49
2022-08-01T01:21:46.796Z,19.56
2022-08-01T01:24:21.505Z,19.54
2022-08-01T01:26:54.433Z,19.51
2022-08-01T01:29:26.276Z,19.45
2022-08-01T01:31:58.582Z,19.57
2022-08-01T01:34:26.447Z,19.51
2022-08-01T01:36:56.767Z,19.47
2022-08-01T01:39:24.685Z,19.57
2022-08-01T01:41:52.574Z,19.31
2022-08-01T01:44:20.699Z,19.43
2022-08-01T01:46:50.094Z,19.49
2022-08-01T01:49:18.607Z,19.51
2022-08-01T01:51:54.179Z,19.31
2022-08-01T01:54:32.330Z,19.30
2022-08-01T01:57:01.761Z,19.38
2022-08-01T01:59:31.960Z,19.33
2022-08-01T02:02:05.689Z,19.36
2022-08-01T02:04:34.619Z,19.35
2022-08-01T02:07:03.334Z,19.12
2022-08-01T02:09:31.202Z,19.06
2022-08-01T02:12:07.777Z,19.21
2022-08-01T02:14:37.182Z,19.25
2022-08-01T02:17:07.594Z,19.50
2022-08-01T02:19:38.022Z,19.39
2022-08-01T02:22:08.276Z,19.47
2022-08-01T02:24:38.913Z,19.48
2022-08-01T02:27:08.345Z,19.38
2022-08-01T02:29:39.359Z,19.35
2022-08-01T02:32:08.934Z,19.57
2022-08-01T02:34:36.773Z,19.61
2022-08-01T02:37:04.639Z,19.64
2022-08-01T02:39:32.572Z,19.72
2022-08-01T02:42:07.710Z,19.44
2022-08-01T02:44:37.880Z,19.43
2022-08-01T02:47:06.141Z,19.42
2022-08-01T02:49:36.273Z,19.23
2022-08-01T02:52:06.736Z,19.44
2022-08-01T02:54:35.002Z,19.34
2022-08-01T02:57:03.802Z,19.39
2022-08-01T02:59:33.301Z,19.37
2022-08-01T03:02:01.677Z,19.41
2022-08-01T03:04:30.915Z,19.46
2022-08-01T03:07:00.048Z,19.59
2022-08-01T03:09:28.346Z,19.46
2022-08-01T03:11:56.160Z,19.39
2022-08-01T03:14:24.415Z,19.33
2022-08-01T03:16:53.611Z,19.48
2022-08-01T03:19:21.464Z,19.49
2022-08-01T03:21:49.228Z,19.42
2022-08-01T03:24:18.393Z,19.50
2022-08-01T03:26:46.372Z,19.55
2022-08-01T03:29:16.399Z,19.43
2022-08-01T03:31:44.465Z,19.50
2022-08-01T03:34:14.616Z,19.61
2022-08-01T03:36:47.333Z,19.50
2022-08-01T03:39:20.240Z,19.55
2022-08-01T03:41:56.246Z,19.57
2022-08-01T03:44:26.859Z,19.64
2022-08-01T03:46:58.777Z,19.68
2022-08-01T03:49:29.425Z,19.66
2022-08-01T03:51:57.282Z,19.66
2022-08-01T03:54:27.125Z,19.65
2022-08-01T03:56:54.967Z,19.49
2022-08-01T03:59:23.103Z,19.59
2022-08-01T04:01:50.986Z,19.44
2022-08-01T04:04:18.831Z,19.40
2022-08-01T04:06:46.686Z,19.43
2022-08-01T04:09:14.820Z,19.43
2022-08-01T04:11:43.945Z,19.41
2022-08-01T04:14:11.748Z,19.29
2022-08-01T04:16:39.781Z,19.40
2022-08-01T04:19:08.625Z,19.48
2022-08-01T04:21:36.620Z,19.44
2022-08-01T04:24:07.262Z,19.43
2022-08-01T04:26:35.513Z,19.51
2022-08-01T04:29:05.917Z,19.38
2022-08-01T04:31:33.798Z,19.49
2022-08-01T04:34:01.656Z,19.32
2022-08-01T04:36:29.906Z,19.39
2022-08-01T04:39:00.301Z,19.57
2022-08-01T04:41:28.079Z,19.57
2022-08-01T04:43:56.541Z,19.67
2022-08-01T04:46:25.701Z,19.43
2022-08-01T04:48:53.498Z,19.49
2022-08-01T04:51:23.154Z,19.48
2022-08-01T04:53:51.956Z,19.43
2022-08-01T04:56:19.819Z,19.37
2022-08-01T04:58:47.916Z,19.40
2022-08-01T05:01:16.632Z,19.19
2022-08-01T05:03:45.861Z,19.29
2022-08-01T05:06:13.603Z,19.15
2022-08-01T05:08:42.405Z,19.03
2022-08-01T05:11:10.212Z,19.12
2022-08-01T05:13:38.038Z,19.14
2022-08-01T05:16:08.201Z,19.06
2022-08-01T05:18:36.060Z,19.03
2022-08-01T05:21:05.234Z,19.11
2022-08-01T05:23:42.890Z,19.04
2022-08-01T05:26:15.672Z,19.16
2022-08-01T05:28:43.670Z,19.20
2022-08-01T05:31:11.758Z,19.25
2022-08-01T05:33:39.724Z,19.28
2022-08-01T05:36:09.074Z,19.42
2022-08-01T05:38:37.144Z,19.48
2022-08-01T05:41:04.984Z,19.28
2022-08-01T05:43:32.766Z,19.51
2022-08-01T05:46:00.579Z,19.46
2022-08-01T05:48:28.395Z,19.47
2022-08-01T05:50:58.559Z,19.37
2022-08-01T05:53:28.229Z,19.48
2022-08-01T05:55:56.104Z,19.43
2022-08-01T05:58:24.127Z,19.46
2022-08-01T06:00:52.178Z,19.46
2022-08-01T06:03:20.383Z,19.56
2022-08-01T06:05:48.168Z,19.56
2022-08-01T06:08:16.241Z,19.67
2022-08-01T06:10:45.415Z,19.60
2022-08-01T06:13:13.277Z,19.69
2022-08-01T06:15:41.588Z,19.89
2022-08-01T06:18:09.433Z,19.91
2022-08-01T06:20:37.166Z,20.09
2022-08-01T06:35:44.700Z,21.92
2022-08-01T06:38:12.563Z,21.59
2022-08-01T06:40:40.413Z,21.42
2022-08-01T06:43:08.667Z,21.11
2022-08-01T06:45:37.636Z,21.09
2022-08-01T06:48:06.080Z,20.95
2022-08-01T06:50:36.947Z,21.06
2022-08-01T06:53:06.534Z,21.08
2022-08-01T06:55:39.990Z,20.88
2022-08-01T06:58:08.084Z,20.87
2022-08-01T07:00:36.412Z,20.99
2022-08-01T07:03:04.266Z,20.97
2022-08-01T07:05:32.181Z,21.13
2022-08-01T07:08:00.285Z,20.92
2022-08-01T07:10:29.902Z,20.83
2022-08-01T07:12:58.283Z,20.94
2022-08-01T07:15:27.694Z,20.26
2022-08-01T07:17:55.665Z,20.57
2022-08-01T07:20:23.474Z,20.46
2022-08-01T07:22:51.386Z,20.32
2022-08-01T07:25:19.264Z,20.66
2022-08-01T07:27:48.552Z,20.47
2022-08-01T07:30:16.370Z,20.36
2022-08-01T07:32:44.450Z,20.43
2022-08-01T07:35:12.352Z,20.74
2022-08-01T07:37:47.787Z,21.02
2022-08-01T07:40:17.521Z,21.02
2022-08-01T07:42:46.099Z,21.11
2022-08-01T07:46:41.026Z,20.97
2022-08-01T07:49:11.043Z,21.22
2022-08-01T07:51:39.248Z,21.44
2022-08-01T07:54:08.138Z,21.37
2022-08-01T07:56:35.938Z,21.42
2022-08-01T07:59:03.742Z,21.09
2022-08-01T08:01:32.993Z,21.15
2022-08-01T08:04:01.125Z,21.42
2022-08-01T08:06:28.966Z,21.32
2022-08-01T08:09:00.930Z,21.80
2022-08-01T08:11:33.467Z,21.85
2022-08-01T08:14:01.369Z,22.00
2022-08-01T08:16:29.466Z,22.02
2022-08-01T08:18:58.664Z,21.93
2022-08-01T08:21:26.581Z,22.22
2022-08-01T08:24:13.415Z,21.88
2022-08-01T08:26:44.030Z,22.27
2022-08-01T08:29:12.042Z,22.26
2022-08-01T08:31:52.439Z,22.32
2022-08-01T08:34:22.168Z,22.28
2022-08-01T08:36:50.124Z,22.49
2022-08-01T08:39:19.758Z,22.37
2022-08-01T08:41:49.462Z,22.56
2022-08-01T08:44:18.462Z,22.77
2022-08-01T08:46:47.810Z,22.90
2022-08-01T08:49:18.867Z,23.04
2022-08-01T08:51:49.792Z,22.76
2022-08-01T08:54:18.460Z,22.13
2022-08-01T08:56:46.303Z,22.35
2022-08-01T08:59:15.330Z,22.17
2022-08-01T09:01:43.283Z,22.16
2022-08-01T09:04:11.161Z,22.35
2022-08-01T09:06:39.108Z,22.73
2022-08-01T09:09:09.256Z,22.57
2022-08-01T09:11:37.177Z,22.83
2022-08-01T09:14:11.677Z,22.70
2022-08-01T09:16:45.212Z,22.45
2022-08-01T09:19:39.774Z,22.90
2022-08-01T09:22:06.045Z,23.29
2022-08-01T09:24:35.472Z,23.31
2022-08-01T09:27:03.568Z,23.17
2022-08-01T09:29:37.868Z,23.16
2022-08-01T09:32:07.682Z,23.18
2022-08-01T09:34:35.971Z,23.32
2022-08-01T09:37:07.765Z,23.44
2022-08-01T09:39:38.677Z,23.72
2022-08-01T09:42:21.730Z,23.53
2022-08-01T09:44:57.250Z,23.26
2022-08-01T09:47:25.814Z,23.31
2022-08-01T09:49:56.153Z,23.36
2022-08-01T09:52:28.977Z,23.41
2022-08-01T09:54:59.715Z,23.54
2022-08-01T09:57:27.664Z,23.26
2022-08-01T09:59:58.724Z,23.23
2022-08-01T10:02:34.772Z,23.39
2022-08-01T10:05:03.572Z,23.38
2022-08-01T10:07:42.603Z,23.21
2022-08-01T10:10:14.670Z,23.37
2022-08-01T10:12:44.325Z,23.24
2022-08-01T10:15:13.486Z,23.23
2022-08-01T10:17:50.493Z,23.13
2022-08-01T10:20:28.898Z,22.87
2022-08-01T10:23:02.348Z,23.24
2022-08-01T10:25:41.963Z,23.35
2022-08-01T10:28:18.005Z,23.53
2022-08-01T10:30:49.407Z,23.61
2022-08-01T10:33:49.915Z,23.70
2022-08-01T10:36:08.503Z,23.68
2022-08-01T10:38:37.434Z,23.86
2022-08-01T10:41:08.651Z,23.40
2022-08-01T10:43:37.067Z,23.38
2022-08-01T10:46:05.586Z,23.90
2022-08-01T10:48:47.232Z,23.86
2022-08-01T10:51:18.417Z,23.71
2022-08-01T10:53:50.644Z,23.79
2022-08-01T10:56:26.950Z,23.59
2022-08-01T10:59:11.466Z,23.67
2022-08-01T11:01:44.807Z,23.98
2022-08-01T11:04:17.004Z,24.24
2022-08-01T11:06:55.565Z,24.19
2022-08-01T11:09:36.865Z,24.57
2022-08-01T11:12:13.454Z,24.56
2022-08-01T11:15:29.779Z,24.53
2022-08-01T11:18:00.569Z,24.31
2022-08-01T11:20:31.114Z,24.44
2022-08-01T11:23:28.447Z,24.21
2022-08-01T11:26:12.155Z,24.43
2022-08-01T11:29:04.677Z,24.77
2022-08-01T11:31:37.889Z,24.96
2022-08-01T11:34:06.044Z,25.20
2022-08-01T11:36:57.480Z,24.92
2022-08-01T11:39:22.157Z,25.14
2022-08-01T11:41:50.045Z,25.06
2022-08-01T11:44:21.207Z,24.60
2022-08-01T11:47:01.277Z,25.34
2022-08-01T11:49:49.260Z,25.16
2022-08-01T11:52:22.559Z,25.20
2022-08-01T11:54:55.854Z,25.25
2022-08-01T11:57:34.709Z,25.14
2022-08-01T12:00:08.769Z,25.67
2022-08-01T12:02:37.349Z,25.40
2022-08-01T12:05:08.497Z,25.07
2022-08-01T12:07:41.955Z,25.14
2022-08-01T12:10:11.748Z,25.54
2022-08-01T12:12:45.402Z,25.42
2022-08-01T12:15:14.762Z,25.48
2022-08-01T12:17:43.658Z,25.37
2022-08-01T12:20:24.967Z,25.45
2022-08-01T12:22:55.640Z,25.51
2022-08-01T12:25:26.599Z,25.07
2022-08-01T12:27:56.534Z,25.20
2022-08-01T12:30:27.902Z,24.95
2022-08-01T12:32:55.841Z,25.18
2022-08-01T12:35:24.451Z,25.24
2022-08-01T12:37:52.965Z,25.40
2022-08-01T12:40:21.545Z,25.44
2022-08-01T12:42:50.016Z,25.47
2022-08-01T12:45:20.658Z,25.52
2022-08-01T12:47:49.884Z,25.89
2022-08-01T12:50:21.001Z,25.42
2022-08-01T12:52:48.791Z,25.82
2022-08-01T12:55:18.397Z,25.62
2022-08-01T12:57:50.919Z,26.11
2022-08-01T13:00:21.390Z,26.26
2022-08-01T13:02:51.431Z,26.35
2022-08-01T13:05:19.659Z,25.97
2022-08-01T13:07:49.449Z,25.41
2022-08-01T13:10:25.910Z,24.94
2022-08-01T13:12:55.206Z,25.05
2022-08-01T13:15:28.486Z,24.92
2022-08-01T13:17:57.722Z,24.57
2022-08-01T13:20:27.053Z,24.85
2022-08-01T13:22:54.854Z,25.09
2022-08-01T13:25:23.946Z,24.98
2022-08-01T13:28:17.246Z,24.70
2022-08-01T13:30:56.212Z,25.14
2022-08-01T13:33:25.847Z,25.17
2022-08-01T13:35:54.250Z,25.11
2022-08-01T13:38:45.667Z,25.32
2022-08-01T13:41:14.123Z,25.26
2022-08-01T13:43:58.338Z,25.57
2022-08-01T13:46:29.666Z,25.50
2022-08-01T13:48:59.617Z,25.47
2022-08-01T13:51:33.139Z,25.25
2022-08-01T13:54:00.942Z,25.43
2022-08-01T13:56:29.492Z,25.47
2022-08-01T13:58:57.403Z,25.31
2022-08-01T14:01:25.605Z,25.76
2022-08-01T14:03:53.443Z,25.55
2022-08-01T14:06:23.386Z,25.56
2022-08-01T14:08:51.293Z,25.63
2022-08-01T14:11:19.083Z,25.80
2022-08-01T14:13:49.345Z,25.87
2022-08-01T14:16:17.236Z,25.37
2022-08-01T14:18:45.116Z,25.53
2022-08-01T14:21:13.414Z,25.42
2022-08-01T14:23:43.876Z,25.44
2022-08-01T14:26:12.453Z,25.36
2022-08-01T14:28:40.802Z,25.14
2022-08-01T14:31:08.874Z,25.25
2022-08-01T14:33:37.610Z,25.11
2022-08-01T14:36:29.605Z,25.02
2022-08-01T14:38:55.880Z,25.09
2022-08-01T14:41:28.593Z,25.06
2022-08-01T14:44:00.978Z,24.71
2022-08-01T14:46:31.477Z,24.83
2022-08-01T14:49:06.573Z,24.78
2022-08-01T14:51:38.015Z,24.88
2022-08-01T14:54:07.763Z,24.69
2022-08-01T14:56:37.803Z,24.96
2022-08-01T14:59:05.623Z,24.91
2022-08-01T15:01:49.394Z,25.09
2022-08-01T15:04:29.208Z,25.01
2022-08-01T15:06:58.137Z,25.39
2022-08-01T15:09:27.674Z,25.74
2022-08-01T15:11:55.555Z,25.85
2022-08-01T15:14:40.701Z,25.57
2022-08-01T15:17:08.838Z,25.29
2022-08-01T15:19:40.385Z,25.29
2022-08-01T15:22:10.177Z,25.42
2022-08-01T15:24:39.510Z,25.45
2022-08-01T15:27:07.526Z,25.57
2022-08-01T15:29:35.428Z,25.47
2022-08-01T15:32:04.586Z,24.93
2022-08-01T15:34:32.654Z,25.11
2022-08-01T15:37:02.849Z,25.23
2022-08-01T15:39:30.948Z,24.82
2022-08-01T15:42:01.784Z,24.71
2022-08-01T15:44:29.862Z,24.89
2022-08-01T15:46:57.895Z,24.98
2022-08-01T15:49:25.936Z,25.27
2022-08-01T15:51:53.808Z,25.37
2022-08-01T15:54:21.695Z,25.07
2022-08-01T15:56:49.588Z,25.28
2022-08-01T15:59:18.764Z,25.44
2022-08-01T16:01:46.731Z,25.21
2022-08-01T16:04:19.529Z,24.99
2022-08-01T16:06:47.917Z,25.04
2022-08-01T16:09:19.224Z,24.80
2022-08-01T16:11:50.781Z,24.92
2022-08-01T16:18:07.552Z,24.57
2022-08-01T16:20:35.592Z,24.51
2022-08-01T16:23:03.730Z,24.40
2022-08-01T16:28:14.324Z,24.79
2022-08-01T16:30:48.759Z,24.70
2022-08-01T16:40:36.288Z,24.10
2022-08-01T16:43:15.387Z,24.30
2022-08-01T16:45:43.798Z,23.92
2022-08-01T16:48:12.514Z,24.06
2022-08-01T16:50:40.854Z,24.02
2022-08-01T16:53:09.059Z,23.97
2022-08-01T16:55:42.625Z,24.07
2022-08-01T16:58:23.517Z,23.78
2022-08-01T17:00:57.651Z,23.64
2022-08-01T17:03:46.862Z,23.54
2022-08-01T17:06:14.460Z,23.52
2022-08-01T17:08:47.219Z,23.68
2022-08-01T17:11:16.956Z,23.87
2022-08-01T17:13:45.499Z,23.86
2022-08-01T17:16:13.795Z,23.75
2022-08-01T17:18:42.087Z,23.80
2022-08-01T17:21:10.294Z,23.79
2022-08-01T17:23:38.520Z,23.59
2022-08-01T17:26:06.798Z,23.59
2022-08-01T17:28:36.375Z,23.86
2022-08-01T17:31:09.780Z,23.75
2022-08-01T17:33:46.115Z,23.30
2022-08-01T17:36:17.838Z,23.32
2022-08-01T17:38:46.151Z,23.18
2022-08-01T17:41:14.365Z,23.20
2022-08-01T17:43:43.944Z,23.16
2022-08-01T17:46:12.445Z,23.10
2022-08-01T17:48:40.684Z,23.23
2022-08-01T17:51:08.899Z,23.35
2022-08-01T17:53:37.379Z,23.21
2022-08-01T17:56:24.358Z,23.08
2022-08-01T17:58:53.952Z,23.14
2022-08-01T18:01:26.554Z,22.99
2022-08-01T18:03:55.598Z,22.93
2022-08-01T18:06:25.700Z,22.84
2022-08-01T18:08:56.153Z,22.82
2022-08-01T18:11:43.558Z,22.90
2022-08-01T18:14:14.303Z,22.98
2022-08-01T18:16:42.517Z,22.94
2022-08-01T18:19:10.706Z,22.36
2022-08-01T18:21:43.129Z,22.64
2022-08-01T18:24:11.570Z,22.68
2022-08-01T18:26:40.352Z,22.69
2022-08-01T18:29:10.064Z,22.57
2022-08-01T18:31:42.027Z,22.72
2022-08-01T18:34:10.325Z,22.48
2022-08-01T18:36:40.344Z,22.32
2022-08-01T18:39:11.392Z,22.28
2022-08-01T18:44:26.474Z,22.24
2022-08-01T18:46:57.648Z,22.31
2022-08-01T18:49:25.977Z,22.20
2022-08-01T18:51:54.471Z,21.85
2022-08-01T18:54:24.406Z,22.08
2022-08-01T18:56:54.001Z,22.14
2022-08-01T18:59:22.403Z,21.97
2022-08-01T19:01:50.775Z,22.10
2022-08-01T19:04:25.491Z,22.10
2022-08-01T19:06:54.546Z,21.86
2022-08-01T19:09:25.546Z,21.87
2022-08-01T19:12:11.871Z,21.83
2022-08-01T19:14:40.437Z,21.83
2022-08-01T19:17:09.319Z,21.78
2022-08-01T19:19:39.373Z,21.50
2022-08-01T19:22:08.189Z,21.28
2022-08-01T19:24:36.451Z,21.34
2022-08-01T19:27:09.246Z,21.32
2022-08-01T19:29:38.606Z,21.23
2022-08-01T19:32:10.544Z,21.06
2022-08-01T19:34:44.183Z,21.00
2022-08-01T19:37:12.413Z,21.06
2022-08-01T19:39:40.712Z,20.90
2022-08-01T19:42:09.819Z,20.92
2022-08-01T19:44:39.369Z,20.71
2022-08-01T19:47:07.950Z,20.80
2022-08-01T19:49:36.490Z,20.63
2022-08-01T19:52:06.438Z,20.67
2022-08-01T19:54:35.882Z,20.76
2022-08-01T19:57:05.574Z,20.60
2022-08-01T19:59:35.042Z,20.76
2022-08-01T20:04:48.970Z,20.61
2022-08-01T20:07:19.414Z,20.63
2022-08-01T20:09:48.266Z,20.62
2022-08-01T20:12:20.468Z,20.46
2022-08-01T20:15:01.039Z,20.51
2022-08-01T20:17:29.735Z,20.41
2022-08-01T20:19:58.323Z,20.38
2022-08-01T20:22:29.447Z,20.17
2022-08-01T20:25:33.329Z,20.16
2022-08-01T20:31:36.158Z,20.04
2022-08-01T20:34:12.115Z,19.90
2022-08-01T20:36:48.079Z,19.93
2022-08-01T20:39:26.637Z,20.00
2022-08-01T20:41:59.400Z,19.99
2022-08-01T20:44:32.515Z,19.87
2022-08-01T20:47:01.792Z,19.84
2022-08-01T20:49:30.136Z,19.73
2022-08-01T20:51:59.747Z,19.69
2022-08-01T20:54:31.941Z,19.63
2022-08-01T20:57:03.767Z,19.67
2022-08-01T20:59:40.106Z,19.56
2022-08-01T21:02:30.423Z,19.46
2022-08-01T21:04:59.963Z,19.36
2022-08-01T21:07:28.996Z,19.37
2022-08-01T21:10:05.330Z,19.22
2022-08-01T21:12:40.974Z,19.06
2022-08-01T21:15:11.350Z,19.12
2022-08-01T21:17:44.728Z,19.15
2022-08-01T21:20:14.477Z,19.07
2022-08-01T21:22:47.453Z,19.03
2022-08-01T21:25:18.389Z,18.83
2022-08-01T21:27:47.116Z,18.77
2022-08-01T21:30:16.352Z,18.79
2022-08-01T21:32:44.786Z,18.80
2022-08-01T21:35:16.165Z,18.81
2022-08-01T21:38:08.446Z,18.73
2022-08-01T21:40:38.153Z,18.81
2022-08-01T21:43:06.370Z,18.62
2022-08-01T21:45:34.561Z,18.71
2022-08-01T21:48:02.785Z,18.66
2022-08-01T21:50:31.034Z,18.68
2022-08-01T21:53:06.073Z,18.58
2022-08-01T21:55:36.918Z,18.58
2022-08-01T21:58:14.753Z,18.62
2022-08-01T22:00:43.291Z,18.58
2022-08-01T22:03:18.276Z,18.55
2022-08-01T22:05:50.289Z,18.54
2022-08-01T22:08:24.887Z,18.48
2022-08-01T22:10:57.577Z,18.49
2022-08-01T22:13:27.172Z,18.45
2022-08-01T22:15:55.659Z,18.39
2022-08-01T22:18:23.854Z,18.38
2022-08-01T22:20:52.072Z,18.39
2022-08-01T22:23:22.108Z,18.36
2022-08-01T22:25:52.724Z,18.35
2022-08-01T22:28:21.950Z,18.25
2022-08-01T22:30:52.355Z,18.19
2022-08-01T22:33:20.599Z,18.17
2022-08-01T22:35:49.895Z,18.18
2022-08-01T22:38:18.756Z,18.17
2022-08-01T22:40:50.166Z,18.16
2022-08-01T22:43:24.584Z,17.92
2022-08-01T22:46:00.103Z,17.97
2022-08-01T22:48:34.763Z,17.67
2022-08-01T22:51:06.624Z,17.53
2022-08-01T22:53:50.636Z,17.50
2022-08-01T22:56:18.814Z,17.52
2022-08-01T22:58:47.926Z,17.58
2022-08-01T23:01:21.102Z,17.46
2022-08-01T23:03:51.332Z,17.57
2022-08-01T23:06:22.218Z,17.55
2022-08-01T23:08:50.437Z,17.58
2022-08-01T23:11:19.319Z,17.30
2022-08-01T23:13:47.585Z,17.31
2022-08-01T23:16:17.768Z,17.36
2022-08-01T23:18:46.310Z,17.29
2022-08-01T23:21:14.567Z,17.32
2022-08-01T23:23:42.734Z,17.35
2022-08-01T23:26:10.931Z,17.27
2022-08-01T23:28:39.142Z,17.23
2022-08-01T23:31:07.657Z,17.31
2022-08-01T23:33:37.219Z,17.31
2022-08-01T23:36:05.939Z,17.32
2022-08-01T23:38:34.422Z,17.26
2022-08-01T23:41:02.622Z,17.07
2022-08-01T23:43:30.796Z,17.20
2022-08-01T23:46:03.943Z,17.18
2022-08-01T23:48:34.696Z,17.13
2022-08-01T23:51:04.370Z,17.09
2022-08-01T23:53:33.787Z,17.10
2022-08-01T23:56:04.269Z,17.08
2022-08-01T23:58:33.447Z,17.10
